Список аэропортов
Фактическая погода:

21 апреля, 18:50
Температура: +14°C (+13.3*)
Ветер: сев.-восточный 3 м/с
Давление: *767 мм
неб. 900 м
Время (МСК)Темп. СВетерВлажностьДавлениеОблачностьОсадки
15:00+16СВ, 5 м/с44%1025 гПас прояснениями
16:00+16СВ, 5 м/с46%1024 гПас прояснениями
17:00+16СВ, 6 м/с48%1023 гПамалооблачно
18:00+15СВ, 5 м/с48%1024 гПамалооблачно
19:00+14СВ, 4 м/с50%1023 гПамалооблачно
20:00+12СВ, 4 м/с55%1023 гПас прояснениями
21:00+12СВ, 2 м/с61%1023 гПас прояснениями
22:00+10СЗ, 1 м/с73%1023 гПас прояснениями
23:00+9СЗ, 1 м/с77%1023 гПас прояснениями
22 апреля
00:00+9З, 2 м/с80%1023 гПас прояснениями
01:00+8З, 2 м/с77%1022 гПас прояснениями
02:00+8З, 2 м/с73%1022 гПамалооблачно
03:00+8З, 2 м/с76%1022 гПамалооблачно
04:00+7З, 2 м/с79%1022 гПамалооблачно
05:00+7З, 2 м/с78%1021 гПамалооблачно
06:00+7З, 2 м/с74%1021 гПас прояснениями
07:00+7З, 2 м/с69%1021 гПас прояснениями
08:00+9З, 2 м/с58%1022 гПамалооблачно
09:00+13Штиль 51%1022 гПас прояснениями
10:00+15ЮВ, 1 м/с40%1022 гПас прояснениями
11:00+16ЮВ, 1 м/с39%1022 гПас прояснениями
12:00+17В, 2 м/с39%1022 гПаясно
13:00+18В, 3 м/с40%1022 гПас прояснениями
14:00+18В, 3 м/с40%1022 гПамалооблачно
15:00+18В, 4 м/с39%1021 гПаоблачно
16:00+18ЮВ, 3 м/с39%1021 гПаоблачносл. дождь
17:00+17ЮВ, 3 м/с41%1021 гПаоблачно
18:00+17ЮВ, 3 м/с43%1021 гПаоблачно
19:00+16Ю, 2 м/с46%1021 гПаоблачно
20:00+14Ю, 3 м/с50%1021 гПаоблачно
21:00+14ЮЗ, 2 м/с55%1021 гПаоблачно
22:00+13ЮЗ, 1 м/с61%1021 гПаоблачносл. дождь
23:00+13С, 1 м/с63%1020 гПаоблачносл. дождь
23 апреля
00:00+13СЗ, 1 м/с69%1020 гПаоблачно
01:00+12З, 1 м/с72%1020 гПаоблачно
02:00+11З, 1 м/с75%1020 гПаоблачно
03:00+10СЗ, 1 м/с78%1020 гПаоблачно
04:00+10С, 2 м/с80%1020 гПас прояснениями
05:00+10С, 2 м/с86%1020 гПамалооблачно
06:00+10С, 2 м/с91%1020 гПамалооблачно
07:00+10СЗ, 2 м/с91%1020 гПамалооблачно
08:00+12СЗ, 3 м/с89%1021 гПас прояснениями
09:00+14С, 3 м/с79%1021 гПамалооблачно
10:00+16СВ, 3 м/с60%1021 гПаоблачно
11:00+18СВ, 3 м/с50%1022 гПамалооблачно
12:00+19В, 3 м/с43%1022 гПамалооблачно
13:00+19В, 4 м/с42%1022 гПас прояснениями
14:00+19В, 4 м/с45%1021 гПаоблачно
15:00+20В, 4 м/с44%1021 гПаоблачно